Time;durP1;ratioP1;P1;durP2;ratioP2;P2;SDS_P1;SDS_P2;PMS_P1;PMS_P2;Temp;Humidity;BMP_temperature;BMP_pressure;BME280_temperature;BME280_humidity;BME280_pressure;Samples;Min_cycle;Max_cycle;Signal;HPM_P1;HPM_P2
2023/09/06 00:01:34;;;;;;;2.97;2.35;;;19.10;99.90;;;;;;4992565;28;20573;-58
2023/09/06 00:04:02;;;;;;;2.60;2.08;;;19.10;99.90;;;;;;4996767;28;20204;-58
2023/09/06 00:06:30;;;;;;;2.85;2.50;;;19.10;99.90;;;;;;4999807;28;20227;-57
2023/09/06 00:08:58;;;;;;;4.57;2.45;;;19.00;99.90;;;;;;5000462;28;20205;-57
2023/09/06 00:11:27;;;;;;;2.13;1.92;;;19.00;99.90;;;;;;5001342;28;20262;-58
2023/09/06 00:13:56;;;;;;;2.95;1.85;;;19.00;99.90;;;;;;4994609;28;20622;-57
2023/09/06 00:16:24;;;;;;;3.47;1.90;;;19.00;99.90;;;;;;5000486;28;20257;-57
2023/09/06 00:18:52;;;;;;;2.90;2.60;;;18.90;99.90;;;;;;4997043;28;20223;-58
2023/09/06 00:21:21;;;;;;;4.15;2.08;;;18.80;99.90;;;;;;5000106;28;20204;-58
2023/09/06 00:23:50;;;;;;;5.82;2.40;;;18.80;99.90;;;;;;4996596;28;20207;-57
2023/09/06 00:26:18;;;;;;;6.75;2.22;;;18.80;99.90;;;;;;5000164;28;20314;-57
2023/09/06 00:28:46;;;;;;;3.60;2.50;;;18.90;99.90;;;;;;4999288;28;20294;-58
2023/09/06 00:31:15;;;;;;;1.98;1.88;;;18.80;99.90;;;;;;4996787;28;20203;-58
2023/09/06 00:33:44;;;;;;;2.95;2.33;;;18.80;99.90;;;;;;4994133;28;20719;-57
2023/09/06 00:36:12;;;;;;;4.65;2.40;;;18.80;99.90;;;;;;4993265;28;20600;-58
2023/09/06 00:38:40;;;;;;;6.30;2.42;;;18.70;99.90;;;;;;4992945;28;20310;-58
2023/09/06 00:41:08;;;;;;;2.33;1.83;;;18.70;99.90;;;;;;4993340;28;20734;-57
2023/09/06 00:43:35;;;;;;;3.65;1.95;;;18.70;99.90;;;;;;4993482;28;20203;-57
2023/09/06 00:46:07;;;;;;;4.22;2.20;;;18.70;99.90;;;;;;4992857;28;20666;-57
2023/09/06 00:48:37;;;;;;;2.55;2.10;;;18.70;99.90;;;;;;4993132;28;20686;-58
2023/09/06 00:51:06;;;;;;;4.13;2.30;;;18.70;99.90;;;;;;4993073;28;20290;-59
2023/09/06 00:53:33;;;;;;;5.07;1.85;;;18.60;99.90;;;;;;4993281;28;20211;-58
2023/09/06 00:56:03;;;;;;;2.35;2.13;;;18.50;99.90;;;;;;4992834;28;20272;-58
2023/09/06 00:58:32;;;;;;;4.50;2.03;;;18.50;99.90;;;;;;4992915;28;20255;-57
2023/09/06 01:01:00;;;;;;;3.55;2.03;;;18.50;99.90;;;;;;4992146;28;20207;-58
2023/09/06 01:03:28;;;;;;;3.28;2.08;;;18.50;99.90;;;;;;4997151;28;20224;-58
2023/09/06 01:06:02;;;;;;;4.13;2.35;;;18.50;99.90;;;;;;4995354;28;20680;-58
2023/09/06 01:08:38;;;;;;;2.08;1.83;;;18.40;99.90;;;;;;4997942;28;20208;-57
2023/09/06 01:11:18;;;;;;;2.45;2.17;;;18.30;99.90;;;;;;4998213;28;20260;-57
2023/09/06 01:13:48;;;;;;;3.20;2.35;;;18.30;99.90;;;;;;4998549;28;20679;-57
2023/09/06 01:16:19;;;;;;;4.88;2.38;;;18.20;99.90;;;;;;4996732;28;20263;-58
2023/09/06 01:18:47;;;;;;;2.88;2.40;;;18.10;99.90;;;;;;4994680;28;20220;-58
2023/09/06 01:21:16;;;;;;;4.95;2.47;;;18.10;99.90;;;;;;4998377;28;20285;-57
2023/09/06 01:23:45;;;;;;;4.45;2.30;;;18.00;99.90;;;;;;4998649;28;20241;-58
2023/09/06 01:26:13;;;;;;;3.10;2.50;;;18.00;99.90;;;;;;4998657;28;20227;-58
2023/09/06 01:28:41;;;;;;;2.50;2.30;;;18.00;99.90;;;;;;5001052;28;20935;-58
2023/09/06 01:31:09;;;;;;;4.35;2.50;;;18.00;99.90;;;;;;5001304;28;20284;-57
2023/09/06 01:33:39;;;;;;;3.28;2.10;;;18.00;99.90;;;;;;4993964;28;20730;-58
2023/09/06 01:36:07;;;;;;;3.90;2.20;;;18.00;99.90;;;;;;4992053;28;20234;-57
2023/09/06 01:38:35;;;;;;;6.78;3.00;;;18.00;99.90;;;;;;4991558;28;20218;-58
2023/09/06 01:41:05;;;;;;;2.78;2.35;;;18.00;99.90;;;;;;4992169;28;20773;-58
2023/09/06 01:43:33;;;;;;;2.85;2.35;;;18.00;99.90;;;;;;4992691;28;20265;-57
2023/09/06 01:46:01;;;;;;;3.72;2.50;;;18.00;99.90;;;;;;4991705;28;20235;-58
2023/09/06 01:48:29;;;;;;;3.95;2.80;;;18.00;99.90;;;;;;4992151;28;20746;-58
2023/09/06 01:50:57;;;;;;;4.88;2.70;;;18.00;99.90;;;;;;4992044;28;20278;-58
2023/09/06 01:53:25;;;;;;;2.95;2.15;;;18.00;99.90;;;;;;4992222;28;20207;-57
2023/09/06 01:55:53;;;;;;;2.63;2.25;;;18.00;99.90;;;;;;4975931;28;20683;-58
2023/09/06 01:58:22;;;;;;;3.03;2.58;;;17.90;99.90;;;;;;4992263;28;20330;-58
2023/09/06 02:00:50;;;;;;;5.00;2.67;;;17.90;99.90;;;;;;4991335;28;20208;-58
2023/09/06 02:03:18;;;;;;;4.65;2.67;;;17.90;99.90;;;;;;4993550;28;20211;-58
2023/09/06 02:05:46;;;;;;;2.83;2.45;;;17.90;99.90;;;;;;4993557;28;20321;-58
2023/09/06 02:08:14;;;;;;;6.13;2.22;;;17.90;99.90;;;;;;4993806;28;20698;-57
2023/09/06 02:10:42;;;;;;;4.97;2.50;;;17.90;99.90;;;;;;4993800;28;20227;-57
2023/09/06 02:13:10;;;;;;;4.40;2.40;;;17.90;99.90;;;;;;4993552;28;20314;-58
2023/09/06 02:15:39;;;;;;;6.20;2.20;;;17.90;99.90;;;;;;4991409;28;20254;-56
2023/09/06 02:18:07;;;;;;;2.60;2.30;;;17.80;99.90;;;;;;4993081;28;20636;-58
2023/09/06 02:20:35;;;;;;;4.22;2.78;;;17.90;99.90;;;;;;4994020;28;20211;-57
2023/09/06 02:23:04;;;;;;;3.05;2.13;;;17.80;99.90;;;;;;4994241;28;20622;-58
2023/09/06 02:25:33;;;;;;;2.53;2.42;;;17.80;99.90;;;;;;4994771;28;20306;-58
2023/09/06 02:28:03;;;;;;;2.58;2.47;;;17.70;99.90;;;;;;4989796;28;20270;-58
2023/09/06 02:30:31;;;;;;;2.58;2.47;;;17.70;99.90;;;;;;4999534;28;20609;-57
2023/09/06 02:33:01;;;;;;;5.55;2.78;;;17.70;99.90;;;;;;4998044;28;20208;-58
2023/09/06 02:35:29;;;;;;;4.93;2.45;;;17.60;99.90;;;;;;4999841;28;20227;-58
2023/09/06 02:37:57;;;;;;;3.65;2.72;;;17.60;99.90;;;;;;4994231;28;20302;-58
2023/09/06 02:40:25;;;;;;;4.22;2.35;;;17.60;99.90;;;;;;4999362;28;20710;-58
2023/09/06 02:42:53;;;;;;;3.38;2.40;;;17.60;99.90;;;;;;5000594;28;20242;-58
2023/09/06 02:45:22;;;;;;;3.35;2.40;;;17.50;99.90;;;;;;5000788;28;20614;-58
2023/09/06 02:47:51;;;;;;;4.82;2.65;;;17.50;99.90;;;;;;4999210;28;20734;-58
2023/09/06 02:50:22;;;;;;;2.60;2.40;;;17.40;99.90;;;;;;5000860;28;20564;-58
2023/09/06 02:52:52;;;;;;;3.17;2.65;;;17.40;99.90;;;;;;5000314;28;20220;-58
2023/09/06 02:55:21;;;;;;;2.83;2.60;;;17.30;99.90;;;;;;4991228;28;20232;-57
2023/09/06 02:57:50;;;;;;;3.88;2.92;;;17.30;99.90;;;;;;5000543;28;20570;-58
2023/09/06 03:00:24;;;;;;;3.70;2.22;;;17.30;99.90;;;;;;5000511;28;20227;-57
2023/09/06 03:02:54;;;;;;;5.03;2.75;;;17.20;99.90;;;;;;4997206;28;20207;-59
2023/09/06 03:05:26;;;;;;;2.60;2.38;;;17.10;99.90;;;;;;4993851;28;20223;-58
2023/09/06 03:07:55;;;;;;;2.78;2.58;;;17.10;99.90;;;;;;4997515;28;20208;-57
2023/09/06 03:10:23;;;;;;;3.83;2.58;;;17.10;99.90;;;;;;4998107;28;20663;-57
2023/09/06 03:12:55;;;;;;;2.33;2.22;;;17.10;99.90;;;;;;5004243;28;20207;-58
2023/09/06 03:15:23;;;;;;;2.72;2.53;;;17.00;99.90;;;;;;4999751;28;20310;-58
2023/09/06 03:17:53;;;;;;;2.80;2.42;;;17.00;99.90;;;;;;4992252;28;20223;-57
2023/09/06 03:20:31;;;;;;;3.22;2.72;;;16.90;99.90;;;;;;4999388;28;20317;-57
2023/09/06 03:23:01;;;;;;;2.90;2.70;;;16.90;99.90;;;;;;5003485;28;20257;-57
2023/09/06 03:25:29;;;;;;;3.00;2.80;;;16.90;99.90;;;;;;4995841;28;20314;-57
2023/09/06 03:28:00;;;;;;;4.65;2.83;;;16.90;99.90;;;;;;4994454;28;20243;-57
2023/09/06 03:30:30;;;;;;;2.83;2.63;;;16.80;99.90;;;;;;5003265;28;20791;-58
2023/09/06 03:32:58;;;;;;;4.10;2.97;;;16.80;99.90;;;;;;5000028;28;20298;-58
2023/09/06 03:35:27;;;;;;;3.03;2.78;;;16.80;99.90;;;;;;4994339;28;20219;-58
2023/09/06 03:37:55;;;;;;;4.82;2.78;;;16.80;99.90;;;;;;4994348;28;20258;-57
2023/09/06 03:40:34;;;;;;;2.88;2.55;;;16.80;99.90;;;;;;4993734;28;20223;-56
2023/09/06 03:43:14;;;;;;;3.85;2.67;;;16.80;99.90;;;;;;4994585;28;20200;-57
2023/09/06 03:45:44;;;;;;;3.22;2.67;;;16.80;99.90;;;;;;4993757;28;20760;-58
2023/09/06 03:48:12;;;;;;;3.42;3.10;;;16.90;99.90;;;;;;4994161;28;20207;-58
2023/09/06 03:50:41;;;;;;;4.95;2.97;;;16.80;99.90;;;;;;4994440;28;20290;-57
2023/09/06 03:53:09;;;;;;;5.85;3.00;;;16.80;99.90;;;;;;4993549;28;20290;-57
2023/09/06 03:55:41;;;;;;;3.75;2.75;;;16.80;99.90;;;;;;4993656;28;20319;-57
2023/09/06 03:58:10;;;;;;;3.65;3.22;;;16.80;99.90;;;;;;4994330;28;20208;-57
2023/09/06 04:00:42;;;;;;;5.15;3.15;;;16.80;99.90;;;;;;4993016;28;20234;-58
2023/09/06 04:03:10;;;;;;;5.30;2.90;;;16.80;99.90;;;;;;4989510;28;20216;-58
2023/09/06 04:05:42;;;;;;;3.05;2.90;;;16.80;99.90;;;;;;4992213;28;20278;-57
2023/09/06 04:08:10;;;;;;;3.13;2.80;;;16.80;99.90;;;;;;4996968;28;20239;-56
2023/09/06 04:10:40;;;;;;;5.32;2.83;;;16.80;99.90;;;;;;4995802;28;20206;-57
2023/09/06 04:13:10;;;;;;;3.83;2.75;;;16.90;99.90;;;;;;4994982;28;20270;-56
2023/09/06 04:15:38;;;;;;;6.53;2.70;;;16.90;99.90;;;;;;4992025;28;20261;-57
2023/09/06 04:18:07;;;;;;;3.40;3.15;;;16.90;99.90;;;;;;4998607;28;20208;-57
2023/09/06 04:20:36;;;;;;;5.10;2.70;;;16.80;99.90;;;;;;5001801;28;20227;-57
2023/09/06 04:23:05;;;;;;;2.72;2.50;;;16.80;99.90;;;;;;4997991;28;20207;-58
2023/09/06 04:25:34;;;;;;;2.83;2.63;;;16.80;99.90;;;;;;4991738;28;20234;-57
2023/09/06 04:28:07;;;;;;;4.88;2.90;;;16.80;99.90;;;;;;4990490;28;20223;-58
2023/09/06 04:30:36;;;;;;;3.55;2.72;;;16.80;99.90;;;;;;4990879;28;20678;-58
2023/09/06 04:33:05;;;;;;;2.78;2.58;;;16.70;99.90;;;;;;4990771;28;20219;-57
2023/09/06 04:35:34;;;;;;;8.75;3.13;;;16.70;99.90;;;;;;4989511;28;20239;-58
2023/09/06 04:38:03;;;;;;;3.83;3.13;;;16.60;99.90;;;;;;4990871;28;20212;-57
2023/09/06 04:40:31;;;;;;;3.40;2.83;;;16.60;99.90;;;;;;4987863;28;20230;-58
2023/09/06 04:42:59;;;;;;;3.40;3.17;;;16.60;99.90;;;;;;4991467;28;20242;-57
2023/09/06 04:45:28;;;;;;;3.33;3.03;;;16.60;99.90;;;;;;5006387;22;20246;-69
2023/09/06 04:47:56;;;;;;;4.05;2.65;;;16.60;99.90;;;;;;5030474;28;20237;-69
2023/09/06 04:50:25;;;;;;;3.45;3.00;;;16.60;99.90;;;;;;5032391;28;20198;-68
2023/09/06 04:52:53;;;;;;;3.22;3.00;;;16.60;99.90;;;;;;5030077;28;20229;-69
2023/09/06 04:55:21;;;;;;;3.90;3.17;;;16.50;99.90;;;;;;5037967;28;20198;-69
2023/09/06 04:57:49;;;;;;;5.15;2.67;;;16.50;99.90;;;;;;5038058;28;20198;-69
2023/09/06 05:00:23;;;;;;;6.93;3.45;;;16.50;99.90;;;;;;5032074;28;20244;-69
2023/09/06 05:02:52;;;;;;;4.03;3.42;;;16.50;99.90;;;;;;5036258;28;20615;-69
2023/09/06 05:05:21;;;;;;;6.32;3.17;;;16.50;99.90;;;;;;5028533;28;20206;-69
2023/09/06 05:07:49;;;;;;;5.88;3.38;;;16.50;99.90;;;;;;5033094;28;20209;-69
2023/09/06 05:10:17;;;;;;;6.60;3.17;;;16.50;99.90;;;;;;5037576;28;20612;-69
2023/09/06 05:12:46;;;;;;;3.75;3.08;;;16.40;99.90;;;;;;5036896;28;20253;-69
2023/09/06 05:15:14;;;;;;;4.32;2.90;;;16.40;99.90;;;;;;5039624;28;20205;-70
2023/09/06 05:17:41;;;;;;;3.80;3.22;;;16.50;99.90;;;;;;5041547;28;20229;-73
2023/09/06 05:20:27;;;;;;;5.55;3.45;;;16.50;99.90;;;;;;5027946;28;20598;-71
2023/09/06 05:22:55;;;;;;;2.90;2.70;;;16.50;99.90;;;;;;5028134;28;20313;-72
2023/09/06 05:25:23;;;;;;;6.03;3.25;;;16.50;99.90;;;;;;5027024;28;20466;-72
2023/09/06 05:27:54;;;;;;;4.97;3.55;;;16.50;99.90;;;;;;5028420;28;20302;-74
2023/09/06 05:38:20;;;;;;;4.90;2.95;;;17.20;99.90;;;;;;5050319;28;20205;-72
2023/09/06 05:54:44;;;;;;;3.35;3.15;;;17.80;99.90;;;;;;5088979;28;20546;-59
2023/09/06 05:57:15;;;;;;;3.63;3.25;;;17.80;99.90;;;;;;5088916;28;20764;-59
2023/09/06 05:59:43;;;;;;;4.38;3.13;;;17.90;99.90;;;;;;5089263;28;20238;-59
2023/09/06 06:02:11;;;;;;;4.20;3.17;;;18.00;99.90;;;;;;5089529;28;20291;-59
2023/09/06 06:04:39;;;;;;;6.05;3.22;;;18.00;99.90;;;;;;5088818;28;20204;-59
2023/09/06 06:07:08;;;;;;;3.78;3.28;;;18.10;99.90;;;;;;5089110;28;20319;-59
2023/09/06 06:09:35;;;;;;;3.30;3.00;;;18.10;99.90;;;;;;5088974;28;20658;-59
2023/09/06 06:12:05;;;;;;;5.53;3.60;;;18.20;99.90;;;;;;5089213;28;20216;-59
2023/09/06 06:14:35;;;;;;;4.68;3.28;;;18.30;99.90;;;;;;5088860;28;20314;-59
2023/09/06 06:17:03;;;;;;;3.50;3.20;;;18.30;99.90;;;;;;5088835;28;20278;-59
2023/09/06 06:19:32;;;;;;;3.67;3.05;;;18.40;99.90;;;;;;5088826;28;20238;-59
2023/09/06 06:22:01;;;;;;;6.38;3.10;;;18.40;99.90;;;;;;5088752;28;20297;-59
2023/09/06 06:24:29;;;;;;;3.85;3.08;;;18.50;99.90;;;;;;5088693;28;20201;-59
2023/09/06 06:26:58;;;;;;;4.45;3.00;;;18.50;99.90;;;;;;5088710;28;20311;-59
2023/09/06 06:29:28;;;;;;;3.38;3.17;;;18.60;99.90;;;;;;5088698;28;20206;-59
2023/09/06 06:31:56;;;;;;;4.60;3.20;;;18.60;99.90;;;;;;5088752;28;20208;-59
2023/09/06 06:34:24;;;;;;;6.22;3.40;;;18.70;99.90;;;;;;5088119;28;20231;-61
2023/09/06 06:36:52;;;;;;;10.82;3.92;;;18.70;99.90;;;;;;5088223;28;20314;-61
2023/09/06 06:39:20;;;;;;;6.68;3.08;;;18.70;99.90;;;;;;5080273;28;20614;-61
2023/09/06 06:41:48;;;;;;;3.92;3.42;;;18.60;99.90;;;;;;5068013;28;20711;-61
2023/09/06 06:44:16;;;;;;;5.07;2.60;;;18.60;99.90;;;;;;5068012;28;20205;-61
2023/09/06 06:46:45;;;;;;;4.68;3.75;;;18.60;99.90;;;;;;5067650;28;20243;-62
2023/09/06 06:49:15;;;;;;;5.55;3.50;;;18.50;99.90;;;;;;5067846;28;20212;-62
2023/09/06 06:51:43;;;;;;;4.60;3.70;;;18.60;99.90;;;;;;5067940;28;20209;-61
2023/09/06 06:54:14;;;;;;;3.97;3.30;;;18.60;99.90;;;;;;5066893;28;20244;-62
2023/09/06 06:56:42;;;;;;;4.70;3.55;;;18.60;99.90;;;;;;5067240;28;20315;-62
2023/09/06 06:59:10;;;;;;;5.85;3.47;;;18.70;99.90;;;;;;5066053;28;20287;-62
2023/09/06 07:01:38;;;;;;;5.80;3.42;;;18.70;99.90;;;;;;5067139;28;20213;-62
2023/09/06 07:04:07;;;;;;;7.72;3.50;;;18.80;99.90;;;;;;5065469;28;20197;-61
2023/09/06 07:06:36;;;;;;;9.55;4.03;;;18.90;99.90;;;;;;5054177;28;20221;-61
2023/09/06 07:09:04;;;;;;;5.53;3.97;;;19.00;99.90;;;;;;5054602;28;20297;-61
2023/09/06 07:11:32;;;;;;;4.35;3.95;;;19.10;99.90;;;;;;5054617;28;20205;-61
2023/09/06 07:14:00;;;;;;;5.00;3.70;;;19.20;99.90;;;;;;5054430;28;20249;-60
2023/09/06 07:16:30;;;;;;;6.05;3.67;;;19.30;99.90;;;;;;5053876;28;20226;-61
2023/09/06 07:18:59;;;;;;;6.70;3.60;;;19.30;99.90;;;;;;5054612;28;20248;-61
2023/09/06 07:21:28;;;;;;;3.85;2.97;;;19.40;99.90;;;;;;5054403;28;20651;-61
2023/09/06 07:23:56;;;;;;;6.50;3.80;;;19.40;99.90;;;;;;5054080;28;20240;-61
2023/09/06 07:26:24;;;;;;;8.35;3.75;;;19.50;99.90;;;;;;5053894;28;20370;-62
2023/09/06 07:28:52;;;;;;;5.05;3.30;;;19.50;99.90;;;;;;5056184;28;20208;-62
2023/09/06 07:31:20;;;;;;;3.88;3.55;;;19.60;99.90;;;;;;5067522;28;20742;-62
2023/09/06 07:33:50;;;;;;;7.93;3.55;;;19.60;99.90;;;;;;5069827;28;20685;-60
2023/09/06 07:36:18;;;;;;;7.28;3.55;;;19.70;99.90;;;;;;5058913;28;20235;-54
2023/09/06 07:38:54;;;;;;;4.28;3.05;;;19.90;99.90;;;;;;5068855;28;20292;-54
2023/09/06 07:41:22;;;;;;;5.65;3.67;;;20.00;99.90;;;;;;5071633;28;20200;-55
2023/09/06 07:43:50;;;;;;;3.55;3.25;;;20.10;99.90;;;;;;5073289;28;20205;-54
2023/09/06 07:46:18;;;;;;;4.95;2.92;;;20.30;99.90;;;;;;5072929;28;20327;-54
2023/09/06 07:48:46;;;;;;;4.45;2.97;;;20.40;99.90;;;;;;5073622;28;20254;-54
2023/09/06 07:51:14;;;;;;;3.97;3.40;;;20.50;99.90;;;;;;5073097;28;20239;-54
2023/09/06 07:53:43;;;;;;;3.85;3.30;;;20.60;99.90;;;;;;5069509;28;20321;-54
2023/09/06 07:56:13;;;;;;;5.22;3.45;;;20.60;99.90;;;;;;5072213;28;20273;-54
2023/09/06 07:58:41;;;;;;;4.93;3.65;;;20.70;99.90;;;;;;5071698;28;20212;-54
2023/09/06 08:01:08;;;;;;;6.18;3.72;;;20.80;99.90;;;;;;5053112;28;20217;-54
2023/09/06 08:03:46;;;;;;;3.20;3.00;;;20.90;99.90;;;;;;5053241;28;20227;-54
2023/09/06 08:06:15;;;;;;;7.95;3.63;;;21.00;99.90;;;;;;5052412;28;20653;-54
2023/09/06 08:08:44;;;;;;;4.95;3.65;;;21.00;99.90;;;;;;5052878;28;20215;-54
2023/09/06 08:11:15;;;;;;;6.38;3.92;;;21.10;99.90;;;;;;5053033;28;20205;-51
2023/09/06 08:13:43;;;;;;;3.40;3.20;;;21.20;99.90;;;;;;5052999;28;20296;-52
2023/09/06 08:16:11;;;;;;;4.28;3.45;;;21.30;99.90;;;;;;5050913;28;20303;-53
2023/09/06 08:18:40;;;;;;;4.40;3.58;;;21.40;99.90;;;;;;5052759;28;20210;-51
2023/09/06 08:21:09;;;;;;;4.63;3.20;;;21.50;99.90;;;;;;5052447;28;20734;-54
2023/09/06 08:23:36;;;;;;;4.07;3.40;;;21.60;99.90;;;;;;5051483;28;20210;-55
2023/09/06 08:26:04;;;;;;;3.80;3.50;;;21.70;99.90;;;;;;5052341;28;20225;-54
2023/09/06 08:28:35;;;;;;;5.65;3.67;;;21.80;99.90;;;;;;5052703;28;20216;-53
2023/09/06 08:31:04;;;;;;;3.65;3.08;;;21.90;99.90;;;;;;5052573;28;20211;-54
2023/09/06 08:33:32;;;;;;;3.58;3.17;;;22.00;99.90;;;;;;5052523;28;20752;-53
2023/09/06 08:36:00;;;;;;;3.72;3.38;;;22.10;99.90;;;;;;5052448;28;20225;-51
2023/09/06 08:38:28;;;;;;;6.03;3.50;;;22.20;99.90;;;;;;5052889;28;20205;-51
2023/09/06 08:40:57;;;;;;;3.47;3.20;;;22.20;99.90;;;;;;5052778;28;20205;-51
2023/09/06 08:43:28;;;;;;;8.88;3.55;;;22.40;99.90;;;;;;5052543;28;20717;-51
2023/09/06 08:45:57;;;;;;;4.40;3.67;;;22.50;99.90;;;;;;5052077;28;20295;-51
2023/09/06 08:48:26;;;;;;;5.07;2.95;;;22.60;99.90;;;;;;5052477;28;20748;-52
2023/09/06 08:50:54;;;;;;;6.10;3.45;;;22.70;99.90;;;;;;5052364;28;20209;-54
2023/09/06 08:53:23;;;;;;;4.90;3.25;;;22.90;99.90;;;;;;5051887;28;20705;-54
2023/09/06 08:55:51;;;;;;;6.70;4.03;;;23.00;99.90;;;;;;5051553;28;20332;-53
2023/09/06 08:58:19;;;;;;;4.35;3.47;;;23.10;99.90;;;;;;5052116;28;20311;-54
2023/09/06 09:00:47;;;;;;;4.20;3.33;;;23.30;99.90;;;;;;5051606;28;20292;-54
2023/09/06 09:03:16;;;;;;;6.30;3.58;;;23.40;99.90;;;;;;5051904;28;20680;-54
2023/09/06 09:05:45;;;;;;;3.25;3.00;;;23.50;99.90;;;;;;5051345;28;20213;-54
2023/09/06 09:08:12;;;;;;;3.70;3.30;;;23.60;99.90;;;;;;5051746;28;20206;-53
2023/09/06 09:10:40;;;;;;;4.47;3.58;;;23.70;99.90;;;;;;5051792;28;20266;-54
2023/09/06 09:13:12;;;;;;;5.45;3.10;;;23.80;99.90;;;;;;5051759;28;20296;-54
2023/09/06 09:15:39;;;;;;;3.30;3.10;;;24.00;99.90;;;;;;5053156;28;20278;-54
2023/09/06 09:18:11;;;;;;;3.92;3.47;;;24.10;99.90;;;;;;5052106;28;20292;-53
2023/09/06 09:20:41;;;;;;;3.78;3.33;;;24.20;99.90;;;;;;5051535;28;20210;-53
2023/09/06 09:23:12;;;;;;;3.88;3.45;;;24.30;99.90;;;;;;5051550;28;20216;-53
2023/09/06 09:25:47;;;;;;;3.72;3.42;;;24.50;99.90;;;;;;5050850;28;20283;-53
2023/09/06 09:28:15;;;;;;;5.60;4.00;;;24.60;99.90;;;;;;5051579;28;20232;-53
2023/09/06 09:30:43;;;;;;;4.05;3.47;;;24.80;99.90;;;;;;5051532;28;20295;-53
2023/09/06 09:33:11;;;;;;;7.82;3.22;;;25.00;99.90;;;;;;5051455;28;20209;-54
2023/09/06 09:35:40;;;;;;;4.47;3.22;;;25.20;99.90;;;;;;5050933;28;20233;-53
2023/09/06 09:38:10;;;;;;;4.38;3.50;;;25.50;99.90;;;;;;5051304;28;20240;-53
2023/09/06 09:40:38;;;;;;;3.53;3.10;;;25.60;99.90;;;;;;5058288;28;20205;-53
2023/09/06 09:43:09;;;;;;;6.32;2.67;;;25.80;99.90;;;;;;5062453;28;20276;-54
2023/09/06 09:45:41;;;;;;;3.35;3.05;;;26.00;99.90;;;;;;5069570;28;20217;-53
2023/09/06 09:48:09;;;;;;;5.93;3.47;;;26.20;99.90;;;;;;5069902;28;20201;-53
2023/09/06 09:50:38;;;;;;;3.53;2.92;;;26.20;99.90;;;;;;5071049;28;20215;-54
2023/09/06 09:53:09;;;;;;;4.00;3.35;;;26.30;99.90;;;;;;5071269;28;20212;-53
2023/09/06 09:55:57;;;;;;;3.17;2.97;;;26.60;99.90;;;;;;5070718;28;20695;-53
2023/09/06 09:58:26;;;;;;;4.80;3.30;;;26.90;99.90;;;;;;5070842;28;20205;-53
2023/09/06 10:00:53;;;;;;;3.55;3.35;;;27.10;99.90;;;;;;5071095;28;20741;-54
2023/09/06 10:03:23;;;;;;;5.07;3.40;;;27.20;99.90;;;;;;5071095;28;20299;-51
2023/09/06 10:05:51;;;;;;;3.70;3.25;;;27.10;99.90;;;;;;5070905;28;20220;-51
2023/09/06 10:08:20;;;;;;;4.97;3.80;;;27.30;99.90;;;;;;5071197;28;20295;-52
2023/09/06 10:10:48;;;;;;;6.30;3.42;;;27.40;99.90;;;;;;5071196;28;20636;-51
2023/09/06 10:13:16;;;;;;;5.15;3.30;;;27.70;99.90;;;;;;5071115;28;20303;-52
2023/09/06 10:15:45;;;;;;;3.90;3.22;;;28.10;99.90;;;;;;5070529;28;20285;-51
2023/09/06 10:18:13;;;;;;;4.18;3.05;;;28.50;99.90;;;;;;5071611;28;20200;-52
2023/09/06 10:20:41;;;;;;;3.63;3.33;;;28.80;99.90;;;;;;5064123;28;20197;-52
2023/09/06 10:23:12;;;;;;;3.53;3.22;;;29.10;99.90;;;;;;5068808;28;20236;-53
2023/09/06 10:25:43;;;;;;;6.10;3.33;;;29.30;99.90;;;;;;5054446;28;20299;-52
2023/09/06 10:28:11;;;;;;;9.13;3.55;;;29.20;99.90;;;;;;5070901;28;20213;-52
2023/09/06 10:30:44;;;;;;;4.30;3.28;;;29.10;99.90;;;;;;5071171;28;20270;-53
2023/09/06 10:33:36;;;;;;;2.72;2.63;;;29.20;99.90;;;;;;5070813;28;20629;-53
2023/09/06 10:36:07;;;;;;;3.30;3.00;;;29.60;99.90;;;;;;5065377;28;20315;-52
2023/09/06 10:38:37;;;;;;;4.93;3.10;;;30.10;99.90;;;;;;5065306;28;20209;-52
2023/09/06 10:41:10;;;;;;;3.75;3.22;;;30.50;99.90;;;;;;5069399;28;20196;-53
2023/09/06 10:44:03;;;;;;;3.50;3.20;;;30.80;99.90;;;;;;5068609;28;20205;-52
2023/09/06 10:46:31;;;;;;;4.15;3.08;;;31.20;99.90;;;;;;5078180;22;20249;-53
2023/09/06 10:49:16;;;;;;;3.00;2.67;;;31.40;99.90;;;;;;5054151;28;20232;-55
2023/09/06 10:51:58;;;;;;;3.92;3.17;;;31.50;99.90;;;;;;5047873;28;20193;-54
2023/09/06 10:54:34;;;;;;;3.65;3.33;;;31.50;99.90;;;;;;5054749;28;20205;-54
2023/09/06 10:57:05;;;;;;;3.33;3.05;;;31.60;99.90;;;;;;5054266;28;20224;-53
2023/09/06 10:59:36;;;;;;;3.40;3.10;;;31.50;99.90;;;;;;5054590;28;20209;-53
2023/09/06 11:02:11;;;;;;;3.65;3.05;;;31.70;99.90;;;;;;5052926;28;20624;-55
2023/09/06 11:04:39;;;;;;;4.10;3.47;;;31.70;99.90;;;;;;5053200;28;20231;-53
2023/09/06 11:07:10;;;;;;;3.58;3.30;;;31.90;99.90;;;;;;5053476;28;20218;-53
2023/09/06 11:09:43;;;;;;;6.35;2.80;;;32.30;99.90;;;;;;5053879;28;20626;-54
2023/09/06 11:12:15;;;;;;;3.35;3.15;;;32.60;99.90;;;;;;5054292;28;20292;-55
2023/09/06 11:18:23;;;;;;;5.20;3.42;;;32.60;97.70;;;;;;4974612;28;20298;-53
2023/09/06 11:20:51;;;;;;;3.72;2.83;;;32.60;99.90;;;;;;4992852;28;20230;-55
2023/09/06 11:23:19;;;;;;;3.50;3.30;;;33.00;99.90;;;;;;4994555;28;20215;-55
2023/09/06 11:25:47;;;;;;;3.92;3.63;;;33.20;98.20;;;;;;4991444;28;20270;-58
2023/09/06 11:28:18;;;;;;;2.95;2.80;;;33.00;96.40;;;;;;4975292;28;20215;-58
2023/09/06 11:30:47;;;;;;;3.60;3.40;;;32.70;99.10;;;;;;4974778;28;20603;-59
2023/09/06 11:33:16;;;;;;;4.00;2.67;;;32.80;96.00;;;;;;4974799;28;20209;-59
2023/09/06 11:35:52;;;;;;;4.13;3.38;;;33.10;97.40;;;;;;4974075;28;20223;-60
2023/09/06 11:38:24;;;;;;;3.30;3.20;;;33.50;96.30;;;;;;4974990;28;20598;-60
2023/09/06 11:40:52;;;;;;;3.38;2.88;;;33.90;96.10;;;;;;4974799;28;20614;-60
2023/09/06 11:43:23;;;;;;;5.38;3.10;;;34.20;93.60;;;;;;4974968;28;20236;-60
2023/09/06 11:45:53;;;;;;;3.78;2.80;;;34.10;92.90;;;;;;4974291;28;20322;-59
2023/09/06 11:48:27;;;;;;;3.00;2.78;;;34.10;93.60;;;;;;4958886;28;20209;-60
2023/09/06 11:51:03;;;;;;;3.40;3.10;;;34.00;92.40;;;;;;4967368;28;20677;-60
2023/09/06 11:53:32;;;;;;;3.13;2.83;;;34.30;92.70;;;;;;4974855;28;20207;-60
2023/09/06 11:56:00;;;;;;;3.25;2.90;;;34.40;90.90;;;;;;4974075;28;20236;-59
2023/09/06 11:58:30;;;;;;;3.53;2.90;;;34.50;92.20;;;;;;4974564;28;20228;-60
2023/09/06 12:01:01;;;;;;;4.40;3.15;;;34.70;90.80;;;;;;4974190;28;20208;-60
2023/09/06 12:03:33;;;;;;;4.22;3.13;;;34.90;90.90;;;;;;4972724;28;20204;-60
2023/09/06 12:06:04;;;;;;;3.63;2.80;;;35.10;92.00;;;;;;4974109;28;20226;-60
2023/09/06 12:08:33;;;;;;;3.13;2.97;;;35.60;91.70;;;;;;4974574;28;20204;-60
2023/09/06 12:11:08;;;;;;;3.75;3.15;;;35.70;90.00;;;;;;4974274;28;20204;-60
2023/09/06 12:13:38;;;;;;;3.20;3.03;;;35.60;86.20;;;;;;4974345;28;20736;-60
2023/09/06 12:16:07;;;;;;;3.47;3.15;;;35.10;85.90;;;;;;4973569;28;20697;-62
2023/09/06 12:18:35;;;;;;;3.08;2.97;;;35.10;88.60;;;;;;4974330;28;20226;-60
2023/09/06 12:21:04;;;;;;;2.85;2.65;;;35.40;86.90;;;;;;4974155;28;20298;-60
2023/09/06 12:23:33;;;;;;;2.95;2.80;;;35.40;83.50;;;;;;4974156;28;20208;-60
2023/09/06 12:26:05;;;;;;;3.03;2.75;;;35.40;84.70;;;;;;4973953;28;20550;-60
2023/09/06 12:28:33;;;;;;;2.90;2.80;;;35.30;82.60;;;;;;4974180;28;20251;-59
2023/09/06 12:31:03;;;;;;;4.35;2.80;;;35.30;84.90;;;;;;4973995;28;20239;-59
2023/09/06 12:33:46;;;;;;;5.25;2.88;;;35.40;82.80;;;;;;4973999;28;20681;-60
2023/09/06 12:36:16;;;;;;;2.95;2.63;;;35.10;80.20;;;;;;4973230;28;20701;-60
2023/09/06 12:38:45;;;;;;;4.63;2.95;;;35.10;81.60;;;;;;4974181;28;20212;-60
2023/09/06 12:41:13;;;;;;;2.63;2.50;;;35.30;83.50;;;;;;4973835;28;20204;-60
2023/09/06 12:43:41;;;;;;;3.20;2.90;;;35.40;81.80;;;;;;4973763;28;20208;-59
2023/09/06 12:46:11;;;;;;;3.05;2.63;;;35.50;81.00;;;;;;4973297;28;20252;-60
2023/09/06 12:48:41;;;;;;;5.13;2.75;;;35.90;82.30;;;;;;4955777;28;20272;-60
2023/09/06 12:51:11;;;;;;;3.33;3.03;;;36.10;82.30;;;;;;4954504;28;20213;-60
2023/09/06 12:53:39;;;;;;;2.47;2.38;;;36.10;79.80;;;;;;4954585;28;20299;-60
2023/09/06 12:56:09;;;;;;;2.25;2.15;;;36.20;79.70;;;;;;4953546;28;20225;-60
2023/09/06 12:58:40;;;;;;;5.85;2.83;;;36.40;78.40;;;;;;4954170;28;20212;-60
2023/09/06 13:01:10;;;;;;;4.70;2.50;;;36.20;75.60;;;;;;4953935;28;20642;-59
2023/09/06 13:03:40;;;;;;;3.35;2.80;;;36.10;78.40;;;;;;4953510;28;20718;-60
2023/09/06 13:06:09;;;;;;;3.17;2.80;;;36.30;79.30;;;;;;4953653;28;20229;-60
2023/09/06 13:08:37;;;;;;;2.60;2.40;;;36.10;75.90;;;;;;4953922;28;20303;-60
2023/09/06 13:11:05;;;;;;;2.40;2.30;;;35.90;77.90;;;;;;4953993;28;20288;-60
2023/09/06 13:13:33;;;;;;;3.03;2.83;;;35.70;76.50;;;;;;4953852;28;20578;-60
2023/09/06 13:16:01;;;;;;;2.80;2.60;;;35.50;76.00;;;;;;4965161;28;20666;-60
2023/09/06 13:18:30;;;;;;;2.42;2.38;;;35.30;76.70;;;;;;4966949;28;20605;-60
2023/09/06 13:20:59;;;;;;;3.20;2.60;;;35.30;77.30;;;;;;4968971;28;20211;-60
2023/09/06 13:23:27;;;;;;;2.90;2.70;;;35.60;77.40;;;;;;4972619;28;20249;-60
2023/09/06 13:25:55;;;;;;;2.70;2.50;;;36.00;77.60;;;;;;4964799;28;20224;-60